Government of Jersey

Home Log in

METAR EGJJ 170620Z 15003KT 9999 FEW029 SCT037 08/05 Q1008

METAR EGJB 170620Z 02006KT 9999 FEW025 SCT034 08/04 Q1008

METAR LFRD 170630Z AUTO 17005KT 5000 BR NSC 04/04 Q1008 TEMPO BKN003

METAR LFRC 170630Z AUTO 18005KT 9999 SCT042 BKN068 OVC180 04/04 Q1008 TEMPO SHRA BKN003